Time;durP1;ratioP1;P1;durP2;ratioP2;P2;SDS_P1;SDS_P2;PMS_P1;PMS_P2;Temp;Humidity;BMP_temperature;BMP_pressure;BME280_temperature;BME280_humidity;BME280_pressure;Samples;Min_cycle;Max_cycle;Signal;HPM_P1;HPM_P2
2022/09/05 00:02:02;;;;;;;11.40;6.63;;;;;;;;;;5045444;28;20099;-66
2022/09/05 00:04:47;;;;;;;10.77;6.38;;;;;;;;;;5044347;28;20115;-67
2022/09/05 00:07:26;;;;;;;10.57;6.57;;;;;;;;;;5044916;28;20071;-68
2022/09/05 00:10:00;;;;;;;10.13;6.07;;;;;;;;;;5043239;28;20044;-69
2022/09/05 00:12:29;;;;;;;10.68;6.57;;;;;;;;;;5027401;28;20033;-65
2022/09/05 00:15:11;;;;;;;9.60;5.95;;;;;;;;;;5037038;28;20040;-67
2022/09/05 00:17:44;;;;;;;10.23;5.85;;;;;;;;;;5042805;28;20442;-67
2022/09/05 00:20:17;;;;;;;9.02;6.25;;;;;;;;;;5041961;28;20106;-67
2022/09/05 00:22:46;;;;;;;13.05;6.47;;;;;;;;;;5043119;28;20124;-67
2022/09/05 00:25:41;;;;;;;13.00;6.38;;;;;;;;;;5042753;28;20029;-67
2022/09/05 00:28:23;;;;;;;9.15;6.30;;;;;;;;;;5024141;28;20057;-66
2022/09/05 00:30:58;;;;;;;21.27;7.60;;;;;;;;;;5027874;28;20048;-66
2022/09/05 00:33:31;;;;;;;13.93;7.10;;;;;;;;;;5041184;28;20098;-66
2022/09/05 00:36:05;;;;;;;10.38;6.97;;;;;;;;;;5034043;28;20100;-67
2022/09/05 00:38:32;;;;;;;10.20;6.35;;;;;;;;;;5031986;28;20055;-67
2022/09/05 00:41:03;;;;;;;8.60;6.28;;;;;;;;;;5036866;28;20126;-67
2022/09/05 00:43:34;;;;;;;9.73;6.50;;;;;;;;;;5035906;28;20138;-67
2022/09/05 00:46:06;;;;;;;10.30;6.35;;;;;;;;;;5046272;28;20039;-67
2022/09/05 00:48:51;;;;;;;9.90;6.53;;;;;;;;;;5043399;28;20048;-68
2022/09/05 00:51:27;;;;;;;26.33;7.30;;;;;;;;;;5041983;28;20094;-68
2022/09/05 00:53:59;;;;;;;9.43;6.57;;;;;;;;;;5044234;28;20033;-68
2022/09/05 00:56:44;;;;;;;9.70;6.38;;;;;;;;;;5026903;28;20925;-67
2022/09/05 00:59:17;;;;;;;11.75;6.65;;;;;;;;;;5037252;28;20044;-68
2022/09/05 01:02:06;;;;;;;10.15;6.60;;;;;;;;;;5040603;28;20037;-68
2022/09/05 01:04:44;;;;;;;13.27;7.00;;;;;;;;;;5040553;28;20048;-68
2022/09/05 01:07:29;;;;;;;10.57;6.80;;;;;;;;;;5035342;28;20486;-68
2022/09/05 01:10:02;;;;;;;11.80;6.18;;;;;;;;;;5040598;28;20106;-67
2022/09/05 01:12:37;;;;;;;11.57;7.35;;;;;;;;;;5039853;28;20044;-67
2022/09/05 01:15:27;;;;;;;9.55;6.30;;;;;;;;;;5039666;28;20045;-67
2022/09/05 01:17:56;;;;;;;9.75;6.72;;;;;;;;;;5030306;28;20049;-67
2022/09/05 01:20:38;;;;;;;20.50;6.75;;;;;;;;;;5038504;28;20036;-66
2022/09/05 01:23:08;;;;;;;11.95;7.30;;;;;;;;;;5039869;28;20065;-67
2022/09/05 01:25:35;;;;;;;9.27;6.57;;;;;;;;;;5040347;28;20040;-65
2022/09/05 01:28:14;;;;;;;17.33;6.88;;;;;;;;;;5040798;28;20119;-65
2022/09/05 01:30:44;;;;;;;9.45;6.57;;;;;;;;;;5040398;28;20110;-67
2022/09/05 01:33:19;;;;;;;12.63;6.82;;;;;;;;;;5042902;28;20041;-67
2022/09/05 01:36:11;;;;;;;10.18;7.20;;;;;;;;;;5041813;28;20094;-67
2022/09/05 01:38:38;;;;;;;;;;;;;;;;;;5038528;28;20132;-67
2022/09/05 01:41:04;;;;;;;9.73;6.40;;;;;;;;;;5037733;28;19916;-67
2022/09/05 01:43:34;;;;;;;10.48;6.55;;;;;;;;;;5037568;28;20162;-66
2022/09/05 01:46:08;;;;;;;10.00;6.45;;;;;;;;;;5038560;28;20118;-67
2022/09/05 01:48:53;;;;;;;11.13;6.70;;;;;;;;;;5039457;28;20998;-67
2022/09/05 01:51:35;;;;;;;13.20;8.23;;;;;;;;;;5037983;28;20044;-67
2022/09/05 01:54:10;;;;;;;10.27;6.93;;;;;;;;;;5017572;28;20096;-68
2022/09/05 01:56:45;;;;;;;9.68;6.80;;;;;;;;;;5051704;28;20033;-68
2022/09/05 01:59:21;;;;;;;11.90;7.07;;;;;;;;;;5031893;28;20040;-65
2022/09/05 02:02:06;;;;;;;9.45;6.55;;;;;;;;;;5029396;28;20030;-66
2022/09/05 02:04:47;;;;;;;11.98;6.47;;;;;;;;;;5027851;28;20052;-65
2022/09/05 02:07:14;;;;;;;9.87;6.80;;;;;;;;;;5026813;28;20128;-66
2022/09/05 02:09:43;;;;;;;11.52;6.57;;;;;;;;;;5039407;28;20475;-67
2022/09/05 02:12:20;;;;;;;10.30;6.93;;;;;;;;;;5041045;28;20044;-67
2022/09/05 02:14:53;;;;;;;12.25;7.18;;;;;;;;;;5040469;28;20092;-67
2022/09/05 02:17:23;;;;;;;11.23;6.97;;;;;;;;;;5024550;28;20479;-67
2022/09/05 02:19:53;;;;;;;10.27;6.75;;;;;;;;;;5021294;28;20072;-67
2022/09/05 02:22:23;;;;;;;9.52;6.88;;;;;;;;;;5021707;28;20821;-67
2022/09/05 02:24:54;;;;;;;9.85;6.55;;;;;;;;;;5024391;28;20041;-65
2022/09/05 02:27:24;;;;;;;11.63;7.40;;;;;;;;;;5048989;28;20053;-66
2022/09/05 02:29:59;;;;;;;9.27;6.72;;;;;;;;;;5027960;28;20045;-66
2022/09/05 02:32:44;;;;;;;10.18;6.88;;;;;;;;;;5028871;28;21453;-66
2022/09/05 02:35:11;;;;;;;13.60;7.18;;;;;;;;;;5034819;28;20086;-66
2022/09/05 02:37:42;;;;;;;11.63;7.40;;;;;;;;;;5022455;28;20906;-67
2022/09/05 02:40:25;;;;;;;11.07;7.15;;;;;;;;;;5023594;28;20041;-67
2022/09/05 02:43:02;;;;;;;10.93;6.85;;;;;;;;;;5034921;28;20099;-66
2022/09/05 02:45:41;;;;;;;11.05;7.30;;;;;;;;;;5035447;28;20048;-66
2022/09/05 02:48:07;;;;;;;11.68;8.05;;;;;;;;;;5031213;28;20093;-66
2022/09/05 02:50:54;;;;;;;11.10;7.35;;;;;;;;;;5038534;28;20048;-66
2022/09/05 02:53:22;;;;;;;11.55;6.97;;;;;;;;;;5037672;28;20037;-66
2022/09/05 02:56:06;;;;;;;12.43;7.80;;;;;;;;;;5037183;28;20069;-67
2022/09/05 02:59:02;;;;;;;11.30;7.28;;;;;;;;;;5051582;28;20128;-67
2022/09/05 03:01:41;;;;;;;12.27;8.35;;;;;;;;;;5026582;28;20047;-67
2022/09/05 03:04:17;;;;;;;14.38;8.02;;;;;;;;;;5039711;28;20056;-68
2022/09/05 03:06:54;;;;;;;11.40;7.90;;;;;;;;;;5031215;28;20796;-65
2022/09/05 03:09:26;;;;;;;11.20;7.60;;;;;;;;;;5022856;28;20033;-67
2022/09/05 03:11:52;;;;;;;;;;;;;;;;;;5022360;28;20037;-67
2022/09/05 03:14:34;;;;;;;9.63;7.20;;;;;;;;;;5036104;28;19917;-66
2022/09/05 03:17:33;;;;;;;13.38;7.63;;;;;;;;;;5033297;28;20785;-65
2022/09/05 03:20:29;;;;;;;10.65;7.60;;;;;;;;;;5023859;28;20403;-65
2022/09/05 03:23:13;;;;;;;13.52;7.90;;;;;;;;;;5012581;28;20156;-65
2022/09/05 03:25:40;;;;;;;11.95;7.68;;;;;;;;;;5037303;28;20067;-64
2022/09/05 03:28:06;;;;;;;11.68;7.72;;;;;;;;;;5039883;28;20139;-64
2022/09/05 03:30:49;;;;;;;12.15;8.05;;;;;;;;;;5040590;28;20067;-64
2022/09/05 03:33:28;;;;;;;10.57;7.68;;;;;;;;;;5053965;28;20040;-65
2022/09/05 03:36:19;;;;;;;12.52;8.30;;;;;;;;;;5039421;28;20049;-65
2022/09/05 03:38:49;;;;;;;12.10;7.90;;;;;;;;;;5040116;28;20124;-66
2022/09/05 03:41:29;;;;;;;12.73;8.13;;;;;;;;;;5040955;28;20126;-65
2022/09/05 03:44:02;;;;;;;12.07;8.15;;;;;;;;;;5020110;28;20045;-66
2022/09/05 03:46:47;;;;;;;15.57;8.27;;;;;;;;;;5034715;28;20049;-63
2022/09/05 03:49:32;;;;;;;11.88;8.27;;;;;;;;;;5037676;28;20137;-64
2022/09/05 03:52:11;;;;;;;11.82;8.15;;;;;;;;;;5041116;28;20077;-66
2022/09/05 03:54:43;;;;;;;15.95;8.40;;;;;;;;;;5029918;28;20041;-66
2022/09/05 03:57:34;;;;;;;11.10;7.95;;;;;;;;;;5053384;28;20052;-64
2022/09/05 04:00:07;;;;;;;11.43;7.85;;;;;;;;;;5033497;28;20521;-65
2022/09/05 04:02:33;;;;;;;;;;;;;;;;;;5020384;28;20052;-63
2022/09/05 04:05:03;;;;;;;10.77;8.18;;;;;;;;;;5024137;28;19924;-64
2022/09/05 04:07:33;;;;;;;12.18;7.90;;;;;;;;;;5027748;28;20125;-64
2022/09/05 04:10:22;;;;;;;13.20;8.27;;;;;;;;;;5025973;28;20121;-64
2022/09/05 04:13:08;;;;;;;19.80;9.57;;;;;;;;;;4993174;28;20038;-67
2022/09/05 04:15:43;;;;;;;12.80;8.27;;;;;;;;;;4997115;28;20050;-68
2022/09/05 04:18:18;;;;;;;13.20;9.02;;;;;;;;;;4999001;28;20050;-69
2022/09/05 04:20:50;;;;;;;13.50;8.00;;;;;;;;;;4998728;28;20042;-69
2022/09/05 04:23:52;;;;;;;15.25;10.48;;;;;;;;;;5000001;28;21442;-64
2022/09/05 04:26:24;;;;;;;12.93;8.82;;;;;;;;;;4995227;28;20431;-66
2022/09/05 04:29:02;;;;;;;14.93;9.10;;;;;;;;;;4996136;28;20184;-65
2022/09/05 04:31:34;;;;;;;16.33;8.75;;;;;;;;;;4997113;28;20441;-64
2022/09/05 04:34:17;;;;;;;15.65;8.32;;;;;;;;;;5002879;28;20046;-63
2022/09/05 04:36:45;;;;;;;12.63;8.52;;;;;;;;;;4999262;28;20520;-64
2022/09/05 04:39:17;;;;;;;12.57;8.75;;;;;;;;;;5003454;28;20079;-64
2022/09/05 04:41:50;;;;;;;13.95;8.65;;;;;;;;;;5002088;28;20303;-64
2022/09/05 04:44:18;;;;;;;12.98;8.73;;;;;;;;;;5016677;28;20084;-64
2022/09/05 04:46:50;;;;;;;18.45;8.75;;;;;;;;;;5037923;28;20055;-68
2022/09/05 04:49:21;;;;;;;13.95;8.52;;;;;;;;;;5038884;28;20588;-66
2022/09/05 04:51:54;;;;;;;11.95;8.38;;;;;;;;;;5033017;28;20037;-66
2022/09/05 04:54:20;;;;;;;;;;;;;;;;;;5025924;28;20371;-66
2022/09/05 04:56:48;;;;;;;13.98;8.30;;;;;;;;;;5021962;28;19996;-66
2022/09/05 04:59:15;;;;;;;14.40;8.27;;;;;;;;;;5023508;28;20103;-66
2022/09/05 05:01:46;;;;;;;16.70;9.18;;;;;;;;;;5039355;28;20061;-66
2022/09/05 05:04:15;;;;;;;17.58;8.85;;;;;;;;;;5040023;28;20041;-67
2022/09/05 05:07:00;;;;;;;11.48;8.18;;;;;;;;;;5038312;28;20628;-68
2022/09/05 05:09:43;;;;;;;15.00;8.00;;;;;;;;;;5039827;28;20037;-66
2022/09/05 05:12:23;;;;;;;16.67;9.38;;;;;;;;;;5039518;28;20509;-66
2022/09/05 05:14:52;;;;;;;18.20;8.65;;;;;;;;;;5030549;28;20447;-66
2022/09/05 05:17:33;;;;;;;15.85;9.07;;;;;;;;;;5019937;28;20114;-66
2022/09/05 05:20:30;;;;;;;12.80;8.80;;;;;;;;;;5022358;28;20041;-65
2022/09/05 05:23:02;;;;;;;14.93;7.97;;;;;;;;;;5019954;28;20049;-66
2022/09/05 05:25:31;;;;;;;16.38;8.40;;;;;;;;;;5029016;28;20041;-66
2022/09/05 05:28:09;;;;;;;16.27;9.05;;;;;;;;;;5021858;28;20062;-66
2022/09/05 05:30:35;;;;;;;14.27;8.18;;;;;;;;;;5022224;28;20512;-66
2022/09/05 05:33:08;;;;;;;11.73;8.05;;;;;;;;;;5035777;28;20037;-66
2022/09/05 05:35:34;;;;;;;12.35;7.90;;;;;;;;;;5040012;28;20397;-67
2022/09/05 05:38:04;;;;;;;16.58;8.07;;;;;;;;;;5041442;28;20064;-67
2022/09/05 05:40:32;;;;;;;13.95;7.88;;;;;;;;;;5034198;28;20083;-67
2022/09/05 05:43:15;;;;;;;12.88;7.90;;;;;;;;;;5055359;28;20072;-67
2022/09/05 05:45:42;;;;;;;16.73;8.63;;;;;;;;;;5028342;28;20038;-67
2022/09/05 05:48:18;;;;;;;13.38;8.23;;;;;;;;;;5024755;28;20064;-67
2022/09/05 05:51:05;;;;;;;10.80;7.32;;;;;;;;;;5024329;28;20037;-67
2022/09/05 05:53:50;;;;;;;13.65;8.25;;;;;;;;;;5023250;28;20417;-67
2022/09/05 05:56:16;;;;;;;13.85;8.23;;;;;;;;;;5028916;28;20048;-68
2022/09/05 05:58:58;;;;;;;13.43;7.85;;;;;;;;;;5038282;28;20049;-68
2022/09/05 06:01:43;;;;;;;13.90;8.10;;;;;;;;;;5038475;28;20044;-68
2022/09/05 06:04:39;;;;;;;14.07;8.20;;;;;;;;;;5040059;28;20080;-68
2022/09/05 06:07:05;;;;;;;13.05;7.72;;;;;;;;;;5029282;28;20537;-68
2022/09/05 06:09:47;;;;;;;14.48;8.43;;;;;;;;;;5041457;28;20067;-67
2022/09/05 06:12:15;;;;;;;16.67;8.27;;;;;;;;;;5035616;28;20359;-67
2022/09/05 06:15:15;;;;;;;12.80;8.02;;;;;;;;;;5038359;28;20052;-67
2022/09/05 06:17:54;;;;;;;17.00;8.32;;;;;;;;;;4987887;28;20044;-67
2022/09/05 06:20:36;;;;;;;16.48;8.73;;;;;;;;;;5038011;28;20159;-67
2022/09/05 06:23:13;;;;;;;11.90;8.00;;;;;;;;;;5036928;28;20414;-67
2022/09/05 06:25:54;;;;;;;17.17;8.38;;;;;;;;;;5030777;28;20128;-67
2022/09/05 06:28:36;;;;;;;13.02;7.75;;;;;;;;;;5024646;28;21922;-67
2022/09/05 06:31:03;;;;;;;11.15;6.93;;;;;;;;;;5023682;28;20044;-67
2022/09/05 06:33:37;;;;;;;13.05;7.43;;;;;;;;;;5036672;28;20040;-67
2022/09/05 06:36:05;;;;;;;14.80;7.07;;;;;;;;;;5037155;28;20056;-67
2022/09/05 06:38:51;;;;;;;13.65;8.05;;;;;;;;;;5036967;28;20432;-67
2022/09/05 06:41:40;;;;;;;14.18;7.82;;;;;;;;;;5037839;28;20052;-68
2022/09/05 06:44:18;;;;;;;15.25;8.00;;;;;;;;;;5034186;28;20398;-67
2022/09/05 06:46:47;;;;;;;16.45;8.23;;;;;;;;;;5021165;28;20049;-68
2022/09/05 06:49:16;;;;;;;15.57;8.18;;;;;;;;;;5040788;28;20037;-68
2022/09/05 06:51:43;;;;;;;16.52;8.07;;;;;;;;;;5028665;28;20044;-69
2022/09/05 06:54:18;;;;;;;13.82;7.32;;;;;;;;;;5020170;28;20539;-69
2022/09/05 06:56:45;;;;;;;12.73;7.68;;;;;;;;;;5018777;28;20164;-68
2022/09/05 06:59:25;;;;;;;17.33;8.38;;;;;;;;;;5021461;28;20128;-68
2022/09/05 07:01:56;;;;;;;19.52;7.63;;;;;;;;;;5026999;28;20073;-67
2022/09/05 07:04:37;;;;;;;12.23;7.47;;;;;;;;;;5016938;28;20498;-67
2022/09/05 07:07:26;;;;;;;13.25;7.35;;;;;;;;;;5016793;28;20123;-67
2022/09/05 07:09:59;;;;;;;11.90;7.15;;;;;;;;;;5032007;28;20041;-67
2022/09/05 07:12:41;;;;;;;10.95;6.60;;;;;;;;;;5040188;28;20041;-67
2022/09/05 07:15:15;;;;;;;12.95;6.53;;;;;;;;;;5041300;28;20040;-67
2022/09/05 07:17:41;;;;;;;13.52;6.68;;;;;;;;;;5038768;28;20489;-67
2022/09/05 07:20:33;;;;;;;12.50;6.43;;;;;;;;;;5040695;28;20044;-66
2022/09/05 07:23:00;;;;;;;9.88;6.45;;;;;;;;;;5023617;28;20630;-66
2022/09/05 07:25:31;;;;;;;12.43;6.43;;;;;;;;;;5031380;28;20034;-67
2022/09/05 07:28:04;;;;;;;13.20;6.75;;;;;;;;;;5027037;28;20053;-66
2022/09/05 07:30:32;;;;;;;13.30;6.72;;;;;;;;;;5036453;28;20114;-66
2022/09/05 07:33:00;;;;;;;10.48;6.10;;;;;;;;;;5027257;28;20049;-66
2022/09/05 07:35:28;;;;;;;11.73;6.30;;;;;;;;;;5024089;28;20061;-66
2022/09/05 07:38:12;;;;;;;10.63;6.10;;;;;;;;;;5020731;28;20041;-66
2022/09/05 07:40:40;;;;;;;12.23;6.30;;;;;;;;;;5022286;28;20045;-67
2022/09/05 07:43:15;;;;;;;11.57;6.00;;;;;;;;;;5036936;28;20202;-66
2022/09/05 07:45:47;;;;;;;9.15;5.10;;;;;;;;;;5051293;28;20044;-66
2022/09/05 07:48:18;;;;;;;8.97;5.40;;;;;;;;;;5023146;28;20041;-66
2022/09/05 07:50:52;;;;;;;12.32;6.25;;;;;;;;;;5019675;28;20843;-67
2022/09/05 07:53:19;;;;;;;9.57;5.32;;;;;;;;;;5032687;28;20163;-66
2022/09/05 07:55:49;;;;;;;9.10;5.35;;;;;;;;;;5020104;28;21083;-66
2022/09/05 07:58:18;;;;;;;10.45;5.78;;;;;;;;;;5022654;28;20041;-66
2022/09/05 08:00:50;;;;;;;9.95;5.40;;;;;;;;;;5029482;28;20776;-66
2022/09/05 08:03:17;;;;;;;10.02;5.97;;;;;;;;;;5040145;28;20125;-66
2022/09/05 08:05:49;;;;;;;10.07;5.93;;;;;;;;;;5038266;28;20082;-66
2022/09/05 08:08:20;;;;;;;11.00;5.80;;;;;;;;;;5043251;28;20588;-66
2022/09/05 08:10:52;;;;;;;10.65;6.03;;;;;;;;;;5043852;28;20108;-66
2022/09/05 08:13:42;;;;;;;9.88;5.95;;;;;;;;;;5044786;28;20041;-66
2022/09/05 08:16:14;;;;;;;10.05;5.13;;;;;;;;;;5044581;28;20038;-67
2022/09/05 08:18:58;;;;;;;11.45;6.32;;;;;;;;;;5044145;28;20044;-67
2022/09/05 08:21:34;;;;;;;10.70;5.80;;;;;;;;;;5027153;28;20414;-67
2022/09/05 08:24:11;;;;;;;9.85;5.55;;;;;;;;;;5031873;28;20057;-67
2022/09/05 08:26:41;;;;;;;10.38;6.30;;;;;;;;;;5041769;28;20143;-68
2022/09/05 08:29:27;;;;;;;10.57;5.60;;;;;;;;;;5044954;28;20036;-68
2022/09/05 08:31:56;;;;;;;10.23;5.53;;;;;;;;;;5027322;28;20044;-68
2022/09/05 08:34:26;;;;;;;10.70;6.03;;;;;;;;;;5042245;28;20033;-68
2022/09/05 08:36:55;;;;;;;10.18;6.03;;;;;;;;;;5023539;28;20044;-68
2022/09/05 08:39:24;;;;;;;10.73;6.40;;;;;;;;;;5035603;28;20057;-68
2022/09/05 08:41:54;;;;;;;10.23;6.10;;;;;;;;;;5025185;28;20048;-66
2022/09/05 08:44:20;;;;;;;11.02;6.38;;;;;;;;;;5036918;28;20076;-67
2022/09/05 08:46:49;;;;;;;11.95;6.03;;;;;;;;;;5040328;28;20110;-67
2022/09/05 08:49:33;;;;;;;10.52;7.00;;;;;;;;;;5040651;28;20072;-67
2022/09/05 08:52:18;;;;;;;9.88;6.40;;;;;;;;;;5022905;28;20044;-67
2022/09/05 08:54:54;;;;;;;10.55;6.60;;;;;;;;;;5028020;28;20053;-68
2022/09/05 08:57:41;;;;;;;10.40;6.03;;;;;;;;;;5028073;28;20056;-68
2022/09/05 09:00:08;;;;;;;9.23;6.38;;;;;;;;;;5027276;28;20057;-67
2022/09/05 09:02:44;;;;;;;10.65;6.32;;;;;;;;;;5031453;28;20179;-67
2022/09/05 09:05:29;;;;;;;11.10;6.60;;;;;;;;;;5037306;28;20068;-66
2022/09/05 09:07:59;;;;;;;9.48;6.43;;;;;;;;;;5042294;28;20045;-66
2022/09/05 09:10:28;;;;;;;8.88;5.75;;;;;;;;;;5043288;28;20458;-65
2022/09/05 09:13:11;;;;;;;10.77;6.15;;;;;;;;;;5043266;28;20037;-67
2022/09/05 09:15:40;;;;;;;11.67;6.90;;;;;;;;;;5026010;28;20073;-67
2022/09/05 09:18:13;;;;;;;9.50;5.88;;;;;;;;;;5032596;28;20370;-67
2022/09/05 09:20:48;;;;;;;9.18;5.57;;;;;;;;;;5033092;28;20509;-67
2022/09/05 09:23:33;;;;;;;13.30;5.82;;;;;;;;;;5025851;28;20060;-67
2022/09/05 09:26:14;;;;;;;10.95;6.22;;;;;;;;;;5041663;28;20562;-67
2022/09/05 09:28:51;;;;;;;9.43;5.63;;;;;;;;;;5055732;28;20060;-67
2022/09/05 09:31:36;;;;;;;10.75;6.22;;;;;;;;;;5056808;28;20128;-67
2022/09/05 09:34:03;;;;;;;9.80;6.25;;;;;;;;;;5027161;28;20490;-68
2022/09/05 09:36:42;;;;;;;8.80;5.93;;;;;;;;;;5030760;28;20074;-67
2022/09/05 09:39:13;;;;;;;9.25;5.68;;;;;;;;;;5029987;28;20099;-67
2022/09/05 09:41:51;;;;;;;11.13;6.30;;;;;;;;;;5021792;28;20135;-67
2022/09/05 09:44:36;;;;;;;10.65;6.32;;;;;;;;;;5036368;28;20060;-67
2022/09/05 09:47:08;;;;;;;10.88;5.75;;;;;;;;;;5040737;28;20131;-68
2022/09/05 09:49:41;;;;;;;11.73;5.90;;;;;;;;;;5049521;28;20033;-68
2022/09/05 09:52:28;;;;;;;9.48;6.18;;;;;;;;;;5026781;28;20049;-68
2022/09/05 09:55:13;;;;;;;10.15;5.72;;;;;;;;;;5034312;28;20896;-69
2022/09/05 09:57:52;;;;;;;10.93;5.60;;;;;;;;;;5038274;28;20120;-68
2022/09/05 10:00:21;;;;;;;10.20;5.63;;;;;;;;;;5039433;28;20041;-68
2022/09/05 10:02:51;;;;;;;10.68;6.65;;;;;;;;;;5029585;28;20760;-67
2022/09/05 10:05:31;;;;;;;10.40;5.75;;;;;;;;;;5019851;28;20129;-67
2022/09/05 10:08:04;;;;;;;8.43;5.53;;;;;;;;;;5035486;28;20053;-68
2022/09/05 10:10:52;;;;;;;8.93;5.65;;;;;;;;;;5040582;28;20419;-67
2022/09/05 10:13:28;;;;;;;10.52;6.32;;;;;;;;;;5033752;28;20052;-67
2022/09/05 10:16:14;;;;;;;9.93;6.07;;;;;;;;;;5041714;28;20612;-67
2022/09/05 10:19:00;;;;;;;12.93;6.28;;;;;;;;;;5006995;28;20406;-67
2022/09/05 10:21:35;;;;;;;7.80;5.30;;;;;;;;;;5021153;28;20042;-67
2022/09/05 10:24:02;;;;;;;10.98;6.43;;;;;;;;;;5027300;28;20033;-67
2022/09/05 10:26:47;;;;;;;10.38;5.57;;;;;;;;;;5021153;28;20064;-67
2022/09/05 10:29:19;;;;;;;10.27;5.65;;;;;;;;;;5035613;28;20048;-67
2022/09/05 10:32:04;;;;;;;10.57;6.15;;;;;;;;;;5038402;28;20120;-67
2022/09/05 10:34:33;;;;;;;9.73;6.15;;;;;;;;;;5040175;28;20101;-67
2022/09/05 10:37:03;;;;;;;11.15;6.07;;;;;;;;;;5043617;28;20036;-67
2022/09/05 10:39:34;;;;;;;12.75;6.25;;;;;;;;;;5044679;28;20037;-67
2022/09/05 10:42:14;;;;;;;10.45;6.38;;;;;;;;;;5046011;28;20045;-68
2022/09/05 10:44:44;;;;;;;10.35;5.97;;;;;;;;;;5046625;28;20068;-68
2022/09/05 10:47:17;;;;;;;10.48;5.93;;;;;;;;;;5044755;28;20068;-68
2022/09/05 10:49:45;;;;;;;13.45;6.25;;;;;;;;;;5044090;28;20048;-68
2022/09/05 10:52:19;;;;;;;12.73;5.97;;;;;;;;;;5043480;28;20044;-68
2022/09/05 10:54:55;;;;;;;9.50;6.22;;;;;;;;;;5034924;28;20072;-68
2022/09/05 10:57:34;;;;;;;9.48;6.18;;;;;;;;;;5022438;28;20033;-69
2022/09/05 11:00:37;;;;;;;10.98;6.05;;;;;;;;;;5035751;28;20046;-69
2022/09/05 11:03:05;;;;;;;11.32;6.18;;;;;;;;;;4981733;28;20093;-70
2022/09/05 11:05:37;;;;;;;10.93;6.00;;;;;;;;;;5016138;28;20037;-69
2022/09/05 11:08:22;;;;;;;10.45;6.07;;;;;;;;;;5039425;28;20057;-69
2022/09/05 11:11:02;;;;;;;9.38;5.90;;;;;;;;;;5033632;28;20777;-69
2022/09/05 11:13:49;;;;;;;10.48;6.28;;;;;;;;;;5037593;28;20163;-69
2022/09/05 11:16:23;;;;;;;11.38;5.65;;;;;;;;;;5039797;28;20045;-69
2022/09/05 11:18:49;;;;;;;9.13;5.82;;;;;;;;;;5032386;28;20400;-68
2022/09/05 11:21:29;;;;;;;9.57;5.82;;;;;;;;;;5027797;28;20234;-69
2022/09/05 11:23:59;;;;;;;11.88;5.80;;;;;;;;;;5033305;28;20041;-69
2022/09/05 11:26:45;;;;;;;17.15;6.22;;;;;;;;;;5041543;28;20075;-68
2022/09/05 11:29:14;;;;;;;14.40;6.35;;;;;;;;;;5040091;28;20087;-68
2022/09/05 11:31:40;;;;;;;15.75;6.75;;;;;;;;;;5038467;28;20501;-68
2022/09/05 11:34:25;;;;;;;10.93;6.00;;;;;;;;;;5038786;28;20043;-68
2022/09/05 11:36:55;;;;;;;10.27;5.97;;;;;;;;;;5021055;28;20107;-68
2022/09/05 11:39:22;;;;;;;9.55;5.70;;;;;;;;;;5034417;28;20090;-68
2022/09/05 11:41:57;;;;;;;8.43;5.28;;;;;;;;;;5039222;28;20040;-68
2022/09/05 11:44:34;;;;;;;12.25;5.80;;;;;;;;;;5040627;28;20121;-68
2022/09/05 11:47:10;;;;;;;10.38;5.68;;;;;;;;;;5041904;28;20503;-68
2022/09/05 11:49:42;;;;;;;15.15;9.40;;;;;;;;;;5041071;28;20041;-68
2022/09/05 11:52:27;;;;;;;22.58;12.35;;;;;;;;;;5043057;28;20045;-68
2022/09/05 11:54:54;;;;;;;27.52;13.05;;;;;;;;;;5023502;28;20053;-68
2022/09/05 11:57:22;;;;;;;32.85;20.17;;;;;;;;;;5031797;28;20120;-68
2022/09/05 12:00:27;;;;;;;37.88;24.60;;;;;;;;;;5035488;28;20037;-68
2022/09/05 12:03:02;;;;;;;38.47;24.60;;;;;;;;;;4960627;28;20691;-68
2022/09/05 12:05:51;;;;;;;36.83;23.13;;;;;;;;;;4962359;28;20138;-69
2022/09/05 12:08:28;;;;;;;34.83;23.67;;;;;;;;;;5014711;28;20064;-68
2022/09/05 12:11:14;;;;;;;47.08;28.00;;;;;;;;;;5038656;28;20037;-68
2022/09/05 12:13:47;;;;;;;38.25;25.40;;;;;;;;;;4993088;28;20045;-67
2022/09/05 12:16:40;;;;;;;45.60;28.38;;;;;;;;;;5027578;28;20492;-67
2022/09/05 12:19:06;;;;;;;45.80;26.52;;;;;;;;;;5028646;28;20041;-67
2022/09/05 12:21:33;;;;;;;45.72;24.40;;;;;;;;;;5039238;28;20037;-67
2022/09/05 12:24:02;;;;;;;55.40;30.90;;;;;;;;;;5031376;28;20033;-68
2022/09/05 12:26:29;;;;;;;44.20;27.02;;;;;;;;;;5041745;28;20052;-69
2022/09/05 12:28:58;;;;;;;46.97;29.45;;;;;;;;;;5031386;28;20045;-68
2022/09/05 12:31:29;;;;;;;34.22;22.90;;;;;;;;;;5032965;28;20069;-68
2022/09/05 12:33:59;;;;;;;50.15;30.42;;;;;;;;;;5028166;28;20647;-68
2022/09/05 12:36:42;;;;;;;48.90;30.15;;;;;;;;;;5041886;28;20041;-68
2022/09/05 12:39:31;;;;;;;44.38;27.58;;;;;;;;;;5043482;28;20037;-68
2022/09/05 12:42:17;;;;;;;51.47;30.80;;;;;;;;;;5038488;28;20463;-68
2022/09/05 12:45:07;;;;;;;47.03;29.90;;;;;;;;;;5042172;28;20049;-68
2022/09/05 12:47:49;;;;;;;46.17;30.33;;;;;;;;;;5042152;28;20505;-68
2022/09/05 12:50:16;;;;;;;54.10;30.13;;;;;;;;;;5023303;28;20041;-69
2022/09/05 12:52:49;;;;;;;46.65;27.02;;;;;;;;;;5038591;28;20036;-68
2022/09/05 12:55:32;;;;;;;51.40;29.45;;;;;;;;;;5041052;28;20190;-68
2022/09/05 12:58:02;;;;;;;49.65;29.88;;;;;;;;;;5035380;28;20045;-68
2022/09/05 13:00:40;;;;;;;49.60;28.63;;;;;;;;;;5039983;28;20029;-68
2022/09/05 13:03:08;;;;;;;49.70;29.52;;;;;;;;;;5022201;28;20113;-69
2022/09/05 13:05:48;;;;;;;44.80;27.35;;;;;;;;;;5031571;28;20045;-69
2022/09/05 13:08:19;;;;;;;42.03;25.52;;;;;;;;;;5041294;28;20063;-69
2022/09/05 13:10:49;;;;;;;37.65;25.08;;;;;;;;;;5033326;28;20049;-69
2022/09/05 13:13:43;;;;;;;47.63;28.83;;;;;;;;;;5033401;28;20040;-68
2022/09/05 13:16:11;;;;;;;44.65;27.38;;;;;;;;;;5021821;28;20041;-68
2022/09/05 13:18:42;;;;;;;43.65;27.38;;;;;;;;;;5024843;28;20076;-68
2022/09/05 13:21:24;;;;;;;43.88;27.58;;;;;;;;;;5042228;28;20091;-69
2022/09/05 13:24:10;;;;;;;43.37;26.23;;;;;;;;;;5029861;28;20095;-68
2022/09/05 13:27:15;;;;;;;38.35;25.17;;;;;;;;;;5028013;28;20041;-68
2022/09/05 13:29:53;;;;;;;37.33;23.92;;;;;;;;;;4929064;29;20059;-68
2022/09/05 13:32:23;;;;;;;39.47;24.40;;;;;;;;;;4928430;29;20109;-69
2022/09/05 13:34:55;;;;;;;37.28;21.67;;;;;;;;;;4975008;28;20047;-68
2022/09/05 13:37:51;;;;;;;36.50;22.60;;;;;;;;;;5025391;28;20042;-67
2022/09/05 13:40:21;;;;;;;39.67;23.83;;;;;;;;;;5018615;28;20041;-67
2022/09/05 13:43:00;;;;;;;30.77;20.95;;;;;;;;;;5036390;28;20057;-68
2022/09/05 13:45:28;;;;;;;36.90;20.88;;;;;;;;;;5041993;28;21931;-68
2022/09/05 13:48:15;;;;;;;33.45;20.83;;;;;;;;;;5037403;28;20045;-68
2022/09/05 13:50:45;;;;;;;29.70;19.27;;;;;;;;;;5041702;28;20056;-67
2022/09/05 13:53:32;;;;;;;34.92;20.08;;;;;;;;;;5054506;28;20123;-67
2022/09/05 13:56:34;;;;;;;31.73;20.23;;;;;;;;;;5041345;28;20545;-67
2022/09/05 13:59:05;;;;;;;31.17;18.20;;;;;;;;;;4958059;28;20094;-65
2022/09/05 14:02:04;;;;;;;27.27;17.65;;;;;;;;;;5013253;28;20037;-66
2022/09/05 14:04:37;;;;;;;32.08;17.63;;;;;;;;;;5014812;28;20052;-65
2022/09/05 14:07:18;;;;;;;28.67;15.95;;;;;;;;;;5029527;28;20416;-65
2022/09/05 14:09:48;;;;;;;32.33;19.75;;;;;;;;;;5034800;28;20060;-66
2022/09/05 14:12:37;;;;;;;28.77;18.35;;;;;;;;;;5029680;28;20048;-66
2022/09/05 14:15:22;;;;;;;29.35;17.63;;;;;;;;;;5026771;28;20447;-67
2022/09/05 14:18:01;;;;;;;28.08;18.25;;;;;;;;;;5031340;28;20053;-67
2022/09/05 14:23:20;;;;;;;25.17;15.93;;;;;;;;;;5021253;28;20111;-67
2022/09/05 14:25:53;;;;;;;27.75;16.35;;;;;;;;;;5023258;28;20095;-66
2022/09/05 14:28:19;;;;;;;;;;;;;;;;;;5037795;28;20045;-67
2022/09/05 14:30:51;;;;;;;23.95;14.70;;;;;;;;;;5040619;28;20380;-65
2022/09/05 14:33:34;;;;;;;26.77;14.70;;;;;;;;;;5041137;28;20464;-66
2022/09/05 14:36:20;;;;;;;23.45;13.60;;;;;;;;;;5026579;28;20504;-66
2022/09/05 14:39:05;;;;;;;20.10;12.85;;;;;;;;;;5040012;28;20098;-66
2022/09/05 14:41:50;;;;;;;21.52;11.95;;;;;;;;;;5041455;28;20041;-65
2022/09/05 14:44:30;;;;;;;17.58;11.15;;;;;;;;;;5039285;28;20053;-67
2022/09/05 14:47:21;;;;;;;17.92;11.27;;;;;;;;;;5038971;28;20136;-67
2022/09/05 14:49:56;;;;;;;25.23;10.63;;;;;;;;;;5042376;28;20045;-66
2022/09/05 14:52:30;;;;;;;21.02;10.65;;;;;;;;;;5032427;28;20044;-67
2022/09/05 14:54:58;;;;;;;14.18;8.60;;;;;;;;;;5048400;28;20040;-66
2022/09/05 14:57:35;;;;;;;14.82;8.25;;;;;;;;;;5032222;28;20575;-67
2022/09/05 15:00:06;;;;;;;16.20;8.88;;;;;;;;;;5021929;28;20056;-67
2022/09/05 15:02:37;;;;;;;15.25;8.38;;;;;;;;;;5026207;28;20041;-66
2022/09/05 15:05:08;;;;;;;12.70;7.50;;;;;;;;;;5033709;28;20045;-66
2022/09/05 15:07:37;;;;;;;14.20;8.13;;;;;;;;;;5034821;28;20059;-66
2022/09/05 15:10:06;;;;;;;14.27;7.93;;;;;;;;;;5037858;28;20447;-67
2022/09/05 15:12:33;;;;;;;12.40;7.43;;;;;;;;;;5033980;28;20037;-67
2022/09/05 15:15:03;;;;;;;19.77;8.88;;;;;;;;;;5022375;28;20494;-69
2022/09/05 15:17:30;;;;;;;12.73;7.63;;;;;;;;;;5022154;28;20568;-67
2022/09/05 15:20:00;;;;;;;12.50;7.63;;;;;;;;;;5036903;28;20203;-67
2022/09/05 15:22:31;;;;;;;12.82;6.82;;;;;;;;;;5035753;28;20041;-67
2022/09/05 15:25:13;;;;;;;12.05;7.28;;;;;;;;;;5038580;28;20049;-66
2022/09/05 15:27:40;;;;;;;12.63;7.45;;;;;;;;;;5035660;28;20122;-66